sensor_id;sensor_type;location;lat;lon;timestamp;pressure;altitude;pressure_sealevel;temperature;humidity
13765;BME280;6953;48.810;9.204;2022-12-10T00:02:01;97617.06;;;4.98;96.54
13765;BME280;6953;48.810;9.204;2022-12-10T00:04:27;97602.44;;;4.96;96.34
13765;BME280;6953;48.810;9.204;2022-12-10T00:06:52;97601.69;;;4.94;96.73
13765;BME280;6953;48.810;9.204;2022-12-10T00:09:19;97286.56;;;3.21;96.58
13765;BME280;6953;48.810;9.204;2022-12-10T00:11:45;97566.59;;;4.85;96.67
13765;BME280;6953;48.810;9.204;2022-12-10T00:14:12;97564.91;;;4.84;97.52
13765;BME280;6953;48.810;9.204;2022-12-10T00:16:38;97582.66;;;4.93;96.65
13765;BME280;6953;48.810;9.204;2022-12-10T00:19:04;97577.56;;;4.73;96.67
13765;BME280;6953;48.810;9.204;2022-12-10T00:21:32;97448.84;;;4.15;96.79
13765;BME280;6953;48.810;9.204;2022-12-10T00:23:59;97517.81;;;4.56;96.90
13765;BME280;6953;48.810;9.204;2022-12-10T00:26:28;97323.38;;;3.46;96.92
13765;BME280;6953;48.810;9.204;2022-12-10T00:28:54;97527.44;;;4.54;96.60
13765;BME280;6953;48.810;9.204;2022-12-10T00:31:26;97581.13;;;4.89;96.42
13765;BME280;6953;48.810;9.204;2022-12-10T00:33:56;97326.34;;;3.38;96.31
13765;BME280;6953;48.810;9.204;2022-12-10T00:36:46;97571.94;;;4.82;96.59
13765;BME280;6953;48.810;9.204;2022-12-10T00:39:18;97457.41;;;4.17;96.03
13765;BME280;6953;48.810;9.204;2022-12-10T00:41:43;97330.88;;;3.33;96.60
13765;BME280;6953;48.810;9.204;2022-12-10T00:44:09;97516.69;;;4.43;96.85
13765;BME280;6953;48.810;9.204;2022-12-10T00:46:34;97514.88;;;4.45;96.75
13765;BME280;6953;48.810;9.204;2022-12-10T00:48:59;97571.47;;;4.74;96.94
13765;BME280;6953;48.810;9.204;2022-12-10T00:51:26;97594.72;;;4.77;96.50
13765;BME280;6953;48.810;9.204;2022-12-10T00:53:54;97569.06;;;4.70;96.82
13765;BME280;6953;48.810;9.204;2022-12-10T00:56:22;97565.09;;;4.63;96.12
13765;BME280;6953;48.810;9.204;2022-12-10T00:58:49;97524.72;;;4.39;96.89
13765;BME280;6953;48.810;9.204;2022-12-10T01:01:16;97582.69;;;4.75;96.99
13765;BME280;6953;48.810;9.204;2022-12-10T01:03:43;97368.38;;;3.45;96.51
13765;BME280;6953;48.810;9.204;2022-12-10T01:06:20;97579.47;;;4.70;96.56
13765;BME280;6953;48.810;9.204;2022-12-10T01:08:47;97594.75;;;4.76;96.17
13765;BME280;6953;48.810;9.204;2022-12-10T01:11:16;97608.66;;;4.75;96.62
13765;BME280;6953;48.810;9.204;2022-12-10T01:13:42;97308.22;;;3.02;96.70
13765;BME280;6953;48.810;9.204;2022-12-10T01:16:09;97537.91;;;4.34;96.01
13765;BME280;6953;48.810;9.204;2022-12-10T01:18:35;97570.78;;;4.52;96.32
13765;BME280;6953;48.810;9.204;2022-12-10T01:21:06;97570.94;;;4.31;96.69
13765;BME280;6953;48.810;9.204;2022-12-10T01:23:34;97609.72;;;4.71;96.76
13765;BME280;6953;48.810;9.204;2022-12-10T01:26:05;97548.34;;;4.33;96.52
13765;BME280;6953;48.810;9.204;2022-12-10T01:28:32;97616.59;;;4.72;96.58
13765;BME280;6953;48.810;9.204;2022-12-10T01:31:06;97627.84;;;4.72;96.18
13765;BME280;6953;48.810;9.204;2022-12-10T01:33:33;97631.34;;;4.71;96.57
13765;BME280;6953;48.810;9.204;2022-12-10T01:36:11;97612.53;;;4.66;96.80
13765;BME280;6953;48.810;9.204;2022-12-10T01:38:37;97547.25;;;4.20;96.32
13765;BME280;6953;48.810;9.204;2022-12-10T01:41:02;97610.53;;;4.54;96.33
13765;BME280;6953;48.810;9.204;2022-12-10T01:46:20;97679.72;;;4.74;97.16
13765;BME280;6953;48.810;9.204;2022-12-10T01:48:46;97651.13;;;4.74;96.49
13765;BME280;6953;48.810;9.204;2022-12-10T01:51:13;97391.09;;;3.20;96.00
13765;BME280;6953;48.810;9.204;2022-12-10T01:53:39;97651.28;;;4.71;96.55
13765;BME280;6953;48.810;9.204;2022-12-10T01:56:05;97654.03;;;4.68;95.48
13765;BME280;6953;48.810;9.204;2022-12-10T01:58:30;97651.03;;;4.58;96.42
13765;BME280;6953;48.810;9.204;2022-12-10T02:01:11;97580.53;;;4.29;96.00
13765;BME280;6953;48.810;9.204;2022-12-10T02:03:44;97645.53;;;4.64;96.14
13765;BME280;6953;48.810;9.204;2022-12-10T02:11:37;97637.88;;;4.61;96.33
13765;BME280;6953;48.810;9.204;2022-12-10T02:17:05;97570.22;;;4.09;97.38
13765;BME280;6953;48.810;9.204;2022-12-10T02:19:41;97644.41;;;4.51;96.95
13765;BME280;6953;48.810;9.204;2022-12-10T02:22:09;97378.41;;;2.96;97.23
13765;BME280;6953;48.810;9.204;2022-12-10T02:24:37;97373.47;;;2.90;96.50
13765;BME280;6953;48.810;9.204;2022-12-10T02:27:09;97626.78;;;4.39;97.26
13765;BME280;6953;48.810;9.204;2022-12-10T02:29:37;97510.84;;;3.66;97.05
13765;BME280;6953;48.810;9.204;2022-12-10T02:34:33;97629.19;;;4.44;97.76
13765;BME280;6953;48.810;9.204;2022-12-10T02:37:04;97632.69;;;4.43;97.46
13765;BME280;6953;48.810;9.204;2022-12-10T02:39:35;97380.88;;;2.99;97.56
13765;BME280;6953;48.810;9.204;2022-12-10T02:42:04;97614.53;;;4.43;97.46
13765;BME280;6953;48.810;9.204;2022-12-10T02:44:32;97610.38;;;4.39;97.72
13765;BME280;6953;48.810;9.204;2022-12-10T02:46:59;97565.59;;;3.97;97.50
13765;BME280;6953;48.810;9.204;2022-12-10T02:49:26;97488.88;;;3.55;98.28
13765;BME280;6953;48.810;9.204;2022-12-10T02:51:53;97525.44;;;3.67;98.36
13765;BME280;6953;48.810;9.204;2022-12-10T02:54:38;97613.94;;;4.18;98.71
13765;BME280;6953;48.810;9.204;2022-12-10T02:58:00;97603.78;;;4.13;98.53
13765;BME280;6953;48.810;9.204;2022-12-10T03:02:32;97592.19;;;4.02;98.60
13765;BME280;6953;48.810;9.204;2022-12-10T03:05:13;97584.03;;;3.91;98.49
13765;BME280;6953;48.810;9.204;2022-12-10T03:07:47;97509.66;;;3.35;98.78
13765;BME280;6953;48.810;9.204;2022-12-10T03:10:28;97608.69;;;3.81;99.25
13765;BME280;6953;48.810;9.204;2022-12-10T03:12:59;97544.69;;;3.43;99.73
13765;BME280;6953;48.810;9.204;2022-12-10T03:15:27;97607.50;;;3.88;99.17
13765;BME280;6953;48.810;9.204;2022-12-10T03:17:56;97645.31;;;3.94;99.67
13765;BME280;6953;48.810;9.204;2022-12-10T03:20:23;97608.72;;;4.00;99.94
13765;BME280;6953;48.810;9.204;2022-12-10T03:22:50;97604.25;;;4.03;99.43
13765;BME280;6953;48.810;9.204;2022-12-10T03:25:21;97595.75;;;4.00;99.93
13765;BME280;6953;48.810;9.204;2022-12-10T03:27:49;97543.47;;;3.70;99.77
13765;BME280;6953;48.810;9.204;2022-12-10T03:30:16;97392.84;;;2.81;99.20
13765;BME280;6953;48.810;9.204;2022-12-10T03:32:43;97622.91;;;4.11;99.42
13765;BME280;6953;48.810;9.204;2022-12-10T03:35:10;97586.00;;;4.05;98.80
13765;BME280;6953;48.810;9.204;2022-12-10T03:37:36;97547.63;;;3.74;99.12
13765;BME280;6953;48.810;9.204;2022-12-10T03:40:03;97611.31;;;4.00;99.50
13765;BME280;6953;48.810;9.204;2022-12-10T03:42:29;97343.50;;;2.46;99.09
13765;BME280;6953;48.810;9.204;2022-12-10T03:44:55;97621.25;;;3.90;99.58
13765;BME280;6953;48.810;9.204;2022-12-10T03:47:20;97564.53;;;3.83;99.70
13765;BME280;6953;48.810;9.204;2022-12-10T03:49:46;97610.81;;;3.92;99.73
13765;BME280;6953;48.810;9.204;2022-12-10T03:52:11;97588.25;;;3.94;99.64
13765;BME280;6953;48.810;9.204;2022-12-10T03:54:37;97335.16;;;2.39;99.80
13765;BME280;6953;48.810;9.204;2022-12-10T03:57:02;97382.38;;;2.64;99.94
13765;BME280;6953;48.810;9.204;2022-12-10T03:59:28;97349.28;;;2.52;99.43
13765;BME280;6953;48.810;9.204;2022-12-10T04:01:53;97607.09;;;3.97;99.25
13765;BME280;6953;48.810;9.204;2022-12-10T04:04:19;97624.88;;;4.06;99.72
13765;BME280;6953;48.810;9.204;2022-12-10T04:06:45;97636.09;;;4.07;99.10
13765;BME280;6953;48.810;9.204;2022-12-10T04:09:12;97612.94;;;4.02;99.21
13765;BME280;6953;48.810;9.204;2022-12-10T04:11:38;97413.66;;;2.80;99.00
13765;BME280;6953;48.810;9.204;2022-12-10T04:14:03;97547.97;;;3.67;99.08
13765;BME280;6953;48.810;9.204;2022-12-10T04:16:48;97405.91;;;2.78;98.91
13765;BME280;6953;48.810;9.204;2022-12-10T04:19:15;97660.88;;;4.13;98.85
13765;BME280;6953;48.810;9.204;2022-12-10T04:21:42;97630.56;;;4.14;98.74
13765;BME280;6953;48.810;9.204;2022-12-10T04:24:29;97656.44;;;4.15;99.01
13765;BME280;6953;48.810;9.204;2022-12-10T04:27:26;97630.63;;;4.12;98.71
13765;BME280;6953;48.810;9.204;2022-12-10T04:29:52;97379.88;;;2.63;98.60
13765;BME280;6953;48.810;9.204;2022-12-10T04:32:19;97317.78;;;2.23;98.50
13765;BME280;6953;48.810;9.204;2022-12-10T04:34:44;97661.13;;;4.07;98.59
13765;BME280;6953;48.810;9.204;2022-12-10T04:37:10;97588.97;;;3.77;98.92
13765;BME280;6953;48.810;9.204;2022-12-10T04:39:37;97443.34;;;2.91;98.70
13765;BME280;6953;48.810;9.204;2022-12-10T04:42:03;97582.38;;;3.70;98.50
13765;BME280;6953;48.810;9.204;2022-12-10T04:44:28;97651.56;;;4.08;99.06
13765;BME280;6953;48.810;9.204;2022-12-10T04:46:54;97663.59;;;4.10;98.34
13765;BME280;6953;48.810;9.204;2022-12-10T04:49:19;97643.66;;;4.11;98.27
13765;BME280;6953;48.810;9.204;2022-12-10T04:51:44;97675.69;;;4.10;98.50
13765;BME280;6953;48.810;9.204;2022-12-10T04:54:10;97567.28;;;3.60;98.97
13765;BME280;6953;48.810;9.204;2022-12-10T04:56:36;97594.44;;;3.71;98.66
13765;BME280;6953;48.810;9.204;2022-12-10T04:59:03;97590.00;;;3.73;98.69
13765;BME280;6953;48.810;9.204;2022-12-10T05:01:29;97660.09;;;4.11;99.30
13765;BME280;6953;48.810;9.204;2022-12-10T05:03:58;97654.81;;;4.13;98.76
13765;BME280;6953;48.810;9.204;2022-12-10T05:06:23;97651.00;;;4.02;98.60
13765;BME280;6953;48.810;9.204;2022-12-10T05:08:49;97654.25;;;4.07;99.10
13765;BME280;6953;48.810;9.204;2022-12-10T05:11:19;97447.81;;;2.88;98.35
13765;BME280;6953;48.810;9.204;2022-12-10T05:13:46;97641.22;;;3.88;99.23
13765;BME280;6953;48.810;9.204;2022-12-10T05:16:14;97647.44;;;4.04;99.65
13765;BME280;6953;48.810;9.204;2022-12-10T05:18:39;97648.41;;;4.02;99.01
13765;BME280;6953;48.810;9.204;2022-12-10T05:21:07;97406.97;;;2.54;99.04
13765;BME280;6953;48.810;9.204;2022-12-10T05:23:35;97688.09;;;4.04;98.97
13765;BME280;6953;48.810;9.204;2022-12-10T05:26:05;97644.34;;;3.96;99.68
13765;BME280;6953;48.810;9.204;2022-12-10T05:28:37;97646.16;;;3.94;99.82
13765;BME280;6953;48.810;9.204;2022-12-10T05:31:04;97333.97;;;2.06;98.79
13765;BME280;6953;48.810;9.204;2022-12-10T05:33:30;97580.78;;;3.48;99.12
13765;BME280;6953;48.810;9.204;2022-12-10T05:35:57;97653.50;;;3.85;99.95
13765;BME280;6953;48.810;9.204;2022-12-10T05:38:24;97390.00;;;2.27;99.79
13765;BME280;6953;48.810;9.204;2022-12-10T05:40:49;97648.72;;;3.76;100.00
13765;BME280;6953;48.810;9.204;2022-12-10T05:43:15;97684.13;;;3.77;99.91
13765;BME280;6953;48.810;9.204;2022-12-10T05:45:40;97660.31;;;3.87;100.00
13765;BME280;6953;48.810;9.204;2022-12-10T05:48:06;97647.53;;;3.83;100.00
13765;BME280;6953;48.810;9.204;2022-12-10T05:50:32;97644.34;;;3.76;100.00
13765;BME280;6953;48.810;9.204;2022-12-10T05:52:57;97663.66;;;3.89;100.00
13765;BME280;6953;48.810;9.204;2022-12-10T05:55:23;97709.53;;;3.89;100.00
13765;BME280;6953;48.810;9.204;2022-12-10T05:57:48;97686.19;;;3.89;100.00
13765;BME280;6953;48.810;9.204;2022-12-10T06:00:14;97586.16;;;3.43;100.00
13765;BME280;6953;48.810;9.204;2022-12-10T06:02:40;97609.22;;;3.49;100.00
13765;BME280;6953;48.810;9.204;2022-12-10T06:05:05;97469.47;;;2.65;100.00
13765;BME280;6953;48.810;9.204;2022-12-10T06:07:31;97670.81;;;3.84;100.00
13765;BME280;6953;48.810;9.204;2022-12-10T06:09:56;97451.88;;;2.53;100.00
13765;BME280;6953;48.810;9.204;2022-12-10T06:12:21;97517.00;;;2.84;100.00
13765;BME280;6953;48.810;9.204;2022-12-10T06:14:47;97691.69;;;3.81;100.00
13765;BME280;6953;48.810;9.204;2022-12-10T06:17:12;97687.66;;;3.74;100.00
13765;BME280;6953;48.810;9.204;2022-12-10T06:19:37;97703.75;;;3.82;100.00
13765;BME280;6953;48.810;9.204;2022-12-10T06:22:03;97687.66;;;3.74;100.00
13765;BME280;6953;48.810;9.204;2022-12-10T06:24:28;97701.88;;;3.86;100.00
13765;BME280;6953;48.810;9.204;2022-12-10T06:26:54;97691.91;;;3.77;100.00
13765;BME280;6953;48.810;9.204;2022-12-10T06:29:19;97702.78;;;3.85;100.00
13765;BME280;6953;48.810;9.204;2022-12-10T06:31:45;97632.88;;;3.42;100.00
13765;BME280;6953;48.810;9.204;2022-12-10T06:34:10;97708.81;;;3.85;100.00
13765;BME280;6953;48.810;9.204;2022-12-10T06:36:36;97711.47;;;3.84;100.00
13765;BME280;6953;48.810;9.204;2022-12-10T06:39:02;97653.34;;;3.48;100.00
13765;BME280;6953;48.810;9.204;2022-12-10T06:41:28;97727.13;;;3.81;100.00
13765;BME280;6953;48.810;9.204;2022-12-10T06:43:53;97723.38;;;3.68;100.00
13765;BME280;6953;48.810;9.204;2022-12-10T06:46:23;97747.19;;;3.77;100.00
13765;BME280;6953;48.810;9.204;2022-12-10T06:48:49;97723.97;;;3.74;100.00
13765;BME280;6953;48.810;9.204;2022-12-10T06:51:15;97667.53;;;3.39;100.00
13765;BME280;6953;48.810;9.204;2022-12-10T06:53:43;97473.41;;;2.12;100.00
13765;BME280;6953;48.810;9.204;2022-12-10T06:56:14;97726.34;;;3.79;100.00
13765;BME280;6953;48.810;9.204;2022-12-10T06:58:40;97725.00;;;3.70;100.00
13765;BME280;6953;48.810;9.204;2022-12-10T07:01:16;97714.28;;;3.78;100.00
13765;BME280;6953;48.810;9.204;2022-12-10T07:03:42;97700.28;;;3.62;100.00
13765;BME280;6953;48.810;9.204;2022-12-10T07:06:09;97660.78;;;3.35;100.00
13765;BME280;6953;48.810;9.204;2022-12-10T07:08:35;97705.34;;;3.65;100.00
13765;BME280;6953;48.810;9.204;2022-12-10T07:11:10;97546.31;;;2.43;100.00
13765;BME280;6953;48.810;9.204;2022-12-10T07:13:36;97569.78;;;2.82;100.00
13765;BME280;6953;48.810;9.204;2022-12-10T07:16:01;97663.47;;;3.34;100.00
13765;BME280;6953;48.810;9.204;2022-12-10T07:18:27;97723.06;;;3.75;100.00
13765;BME280;6953;48.810;9.204;2022-12-10T07:20:52;97476.16;;;2.29;100.00
13765;BME280;6953;48.810;9.204;2022-12-10T07:23:18;97755.56;;;3.84;100.00
13765;BME280;6953;48.810;9.204;2022-12-10T07:25:43;97736.50;;;3.85;99.69
13765;BME280;6953;48.810;9.204;2022-12-10T07:28:09;97513.09;;;2.54;100.00
13765;BME280;6953;48.810;9.204;2022-12-10T07:30:35;97671.31;;;3.52;99.72
13765;BME280;6953;48.810;9.204;2022-12-10T07:33:00;97474.22;;;2.34;99.89
13765;BME280;6953;48.810;9.204;2022-12-10T07:35:25;97742.84;;;3.98;99.70
13765;BME280;6953;48.810;9.204;2022-12-10T07:37:51;97490.63;;;2.55;99.94
13765;BME280;6953;48.810;9.204;2022-12-10T07:40:16;97748.56;;;4.06;98.98
13765;BME280;6953;48.810;9.204;2022-12-10T07:42:42;97496.50;;;2.58;99.22
13765;BME280;6953;48.810;9.204;2022-12-10T07:45:07;97756.94;;;4.12;99.20
13765;BME280;6953;48.810;9.204;2022-12-10T07:47:37;97506.50;;;2.67;98.82
13765;BME280;6953;48.810;9.204;2022-12-10T07:50:03;97426.53;;;2.20;97.72
13765;BME280;6953;48.810;9.204;2022-12-10T07:52:29;97715.06;;;3.80;98.44
13765;BME280;6953;48.810;9.204;2022-12-10T07:54:54;97771.00;;;4.26;98.27
13765;BME280;6953;48.810;9.204;2022-12-10T07:57:19;97757.81;;;4.31;98.06
13765;BME280;6953;48.810;9.204;2022-12-10T07:59:45;97763.63;;;4.37;98.78
13765;BME280;6953;48.810;9.204;2022-12-10T08:02:10;97756.75;;;4.36;98.13
13765;BME280;6953;48.810;9.204;2022-12-10T08:04:35;97769.19;;;4.48;98.31
13765;BME280;6953;48.810;9.204;2022-12-10T08:07:02;97766.38;;;4.53;97.25
13765;BME280;6953;48.810;9.204;2022-12-10T08:09:28;97767.19;;;4.35;96.72
13765;BME280;6953;48.810;9.204;2022-12-10T08:11:54;97760.75;;;4.43;96.36
13765;BME280;6953;48.810;9.204;2022-12-10T08:14:19;97793.53;;;4.46;96.68
13765;BME280;6953;48.810;9.204;2022-12-10T08:16:45;97528.16;;;3.06;96.28
13765;BME280;6953;48.810;9.204;2022-12-10T08:19:10;97777.50;;;4.56;95.86
13765;BME280;6953;48.810;9.204;2022-12-10T08:21:35;97560.81;;;3.30;95.95
13765;BME280;6953;48.810;9.204;2022-12-10T08:24:01;97773.25;;;4.54;95.11
13765;BME280;6953;48.810;9.204;2022-12-10T08:26:31;97759.44;;;4.53;94.61
13765;BME280;6953;48.810;9.204;2022-12-10T08:28:58;97671.41;;;4.09;94.68
13765;BME280;6953;48.810;9.204;2022-12-10T08:31:25;97774.25;;;4.70;94.49
13765;BME280;6953;48.810;9.204;2022-12-10T08:33:51;97763.13;;;4.68;94.60
13765;BME280;6953;48.810;9.204;2022-12-10T08:36:18;97799.38;;;4.89;94.54
13765;BME280;6953;48.810;9.204;2022-12-10T08:38:44;97811.19;;;4.96;93.65
13765;BME280;6953;48.810;9.204;2022-12-10T08:41:12;97778.53;;;5.09;94.70
13765;BME280;6953;48.810;9.204;2022-12-10T08:43:38;97680.41;;;4.59;93.80
13765;BME280;6953;48.810;9.204;2022-12-10T08:46:04;97778.59;;;5.26;93.31
13765;BME280;6953;48.810;9.204;2022-12-10T08:48:30;97785.13;;;5.34;92.72
13765;BME280;6953;48.810;9.204;2022-12-10T08:50:56;97782.09;;;5.43;92.64
13765;BME280;6953;48.810;9.204;2022-12-10T08:53:22;97708.34;;;5.09;92.04
13765;BME280;6953;48.810;9.204;2022-12-10T08:55:51;97804.66;;;5.43;91.13
13765;BME280;6953;48.810;9.204;2022-12-10T08:58:17;97800.50;;;5.57;91.30
13765;BME280;6953;48.810;9.204;2022-12-10T09:00:43;97766.63;;;5.40;90.46
13765;BME280;6953;48.810;9.204;2022-12-10T09:03:08;97800.75;;;5.70;90.75
13765;BME280;6953;48.810;9.204;2022-12-10T09:05:35;97763.16;;;5.58;90.72
13765;BME280;6953;48.810;9.204;2022-12-10T09:08:00;97773.66;;;5.57;89.61
13765;BME280;6953;48.810;9.204;2022-12-10T09:10:26;97813.69;;;5.90;89.40
13765;BME280;6953;48.810;9.204;2022-12-10T09:12:51;97570.25;;;4.46;88.54
13765;BME280;6953;48.810;9.204;2022-12-10T09:15:16;97808.84;;;5.82;87.97
13765;BME280;6953;48.810;9.204;2022-12-10T09:17:42;97817.50;;;5.83;87.56
13765;BME280;6953;48.810;9.204;2022-12-10T09:20:08;97767.41;;;5.42;86.82
13765;BME280;6953;48.810;9.204;2022-12-10T09:22:34;97709.03;;;5.12;86.49
13765;BME280;6953;48.810;9.204;2022-12-10T09:25:04;97807.41;;;5.75;86.79
13765;BME280;6953;48.810;9.204;2022-12-10T09:27:30;97816.06;;;5.94;87.19
13765;BME280;6953;48.810;9.204;2022-12-10T09:29:55;97854.53;;;6.06;86.40
13765;BME280;6953;48.810;9.204;2022-12-10T09:32:21;97703.31;;;5.41;85.89
13765;BME280;6953;48.810;9.204;2022-12-10T09:34:46;97816.94;;;6.12;85.42
13765;BME280;6953;48.810;9.204;2022-12-10T09:37:12;97843.06;;;6.10;84.00
13765;BME280;6953;48.810;9.204;2022-12-10T09:39:37;97806.56;;;5.93;85.05
13765;BME280;6953;48.810;9.204;2022-12-10T09:42:13;97834.00;;;6.17;85.17
13765;BME280;6953;48.810;9.204;2022-12-10T09:47:16;97816.69;;;5.99;83.39
13765;BME280;6953;48.810;9.204;2022-12-10T09:50:31;97568.16;;;4.71;83.90
13765;BME280;6953;48.810;9.204;2022-12-10T09:52:41;97828.75;;;6.18;83.42
13765;BME280;6953;48.810;9.204;2022-12-10T09:55:16;97833.56;;;6.09;83.57
13765;BME280;6953;48.810;9.204;2022-12-10T09:57:45;97814.44;;;6.10;83.66
13765;BME280;6953;48.810;9.204;2022-12-10T10:02:43;97829.66;;;6.18;82.80
13765;BME280;6953;48.810;9.204;2022-12-10T10:07:38;97818.09;;;6.06;82.54
13765;BME280;6953;48.810;9.204;2022-12-10T10:10:33;97825.00;;;6.24;82.38
13765;BME280;6953;48.810;9.204;2022-12-10T10:13:11;97793.13;;;6.02;81.71
13765;BME280;6953;48.810;9.204;2022-12-10T10:15:42;97784.53;;;6.00;81.49
13765;BME280;6953;48.810;9.204;2022-12-10T10:18:28;97818.19;;;6.21;81.18
13765;BME280;6953;48.810;9.204;2022-12-10T10:20:55;97819.31;;;6.33;81.86
13765;BME280;6953;48.810;9.204;2022-12-10T10:23:21;97804.41;;;6.19;81.35
13765;BME280;6953;48.810;9.204;2022-12-10T10:25:46;97822.63;;;6.53;81.63
13765;BME280;6953;48.810;9.204;2022-12-10T10:28:20;97618.03;;;5.48;81.11
13765;BME280;6953;48.810;9.204;2022-12-10T10:30:47;97827.09;;;6.84;80.77
13765;BME280;6953;48.810;9.204;2022-12-10T10:33:14;97819.97;;;6.87;80.27
13765;BME280;6953;48.810;9.204;2022-12-10T10:35:47;97580.56;;;5.18;79.06
13765;BME280;6953;48.810;9.204;2022-12-10T10:38:21;97827.84;;;6.36;79.13
13765;BME280;6953;48.810;9.204;2022-12-10T10:40:54;97821.53;;;6.23;80.28
13765;BME280;6953;48.810;9.204;2022-12-10T10:43:28;97819.50;;;6.30;80.10
13765;BME280;6953;48.810;9.204;2022-12-10T10:46:02;97846.28;;;6.32;80.59
13765;BME280;6953;48.810;9.204;2022-12-10T10:48:30;97613.84;;;4.93;80.97
13765;BME280;6953;48.810;9.204;2022-12-10T10:53:43;97809.59;;;6.19;81.63
13765;BME280;6953;48.810;9.204;2022-12-10T10:56:12;97824.69;;;6.30;81.55
13765;BME280;6953;48.810;9.204;2022-12-10T11:01:51;97836.25;;;6.75;80.48
13765;BME280;6953;48.810;9.204;2022-12-10T11:04:31;97836.72;;;6.99;80.02
13765;BME280;6953;48.810;9.204;2022-12-10T11:07:03;97843.94;;;7.11;79.54
13765;BME280;6953;48.810;9.204;2022-12-10T11:09:32;97837.38;;;6.87;79.00
13765;BME280;6953;48.810;9.204;2022-12-10T11:12:04;97831.31;;;6.86;78.96
13765;BME280;6953;48.810;9.204;2022-12-10T11:14:40;97866.59;;;6.76;79.03
13765;BME280;6953;48.810;9.204;2022-12-10T11:22:26;97844.91;;;6.59;78.65
13765;BME280;6953;48.810;9.204;2022-12-10T11:24:51;97677.56;;;5.54;79.33
13765;BME280;6953;48.810;9.204;2022-12-10T11:27:55;97843.69;;;6.66;78.27
13765;BME280;6953;48.810;9.204;2022-12-10T11:30:26;97823.28;;;6.57;78.88
13765;BME280;6953;48.810;9.204;2022-12-10T11:33:14;97648.03;;;5.38;79.35
13765;BME280;6953;48.810;9.204;2022-12-10T11:38:28;97845.16;;;6.54;79.71
13765;BME280;6953;48.810;9.204;2022-12-10T11:40:58;97856.63;;;6.50;79.61
13765;BME280;6953;48.810;9.204;2022-12-10T11:43:46;97744.28;;;6.07;79.43
13765;BME280;6953;48.810;9.204;2022-12-10T11:51:35;97875.16;;;6.95;78.67
13765;BME280;6953;48.810;9.204;2022-12-10T11:54:19;97840.34;;;6.96;78.22
13765;BME280;6953;48.810;9.204;2022-12-10T12:08:17;97829.81;;;6.98;77.29
13765;BME280;6953;48.810;9.204;2022-12-10T12:13:15;97825.81;;;7.08;75.94
13765;BME280;6953;48.810;9.204;2022-12-10T12:20:52;97786.94;;;6.88;72.89
13765;BME280;6953;48.810;9.204;2022-12-10T12:26:13;97860.59;;;7.23;74.00
13765;BME280;6953;48.810;9.204;2022-12-10T12:28:51;97853.75;;;7.53;72.49
13765;BME280;6953;48.810;9.204;2022-12-10T12:31:21;97861.19;;;7.61;73.13
13765;BME280;6953;48.810;9.204;2022-12-10T12:33:51;97698.31;;;6.55;72.11
13765;BME280;6953;48.810;9.204;2022-12-10T12:36:27;97798.13;;;7.05;71.87
13765;BME280;6953;48.810;9.204;2022-12-10T12:44:15;97851.13;;;7.38;72.66
13765;BME280;6953;48.810;9.204;2022-12-10T12:46:45;97626.22;;;5.91;71.98
13765;BME280;6953;48.810;9.204;2022-12-10T12:52:01;97657.66;;;6.04;72.38
13765;BME280;6953;48.810;9.204;2022-12-10T12:54:27;97865.63;;;7.11;73.13
13765;BME280;6953;48.810;9.204;2022-12-10T12:57:01;97906.28;;;6.98;72.89
13765;BME280;6953;48.810;9.204;2022-12-10T12:59:52;97888.34;;;6.92;74.21
13765;BME280;6953;48.810;9.204;2022-12-10T13:04:50;97781.69;;;6.05;74.30
13765;BME280;6953;48.810;9.204;2022-12-10T13:10:07;97898.25;;;6.52;75.11
13765;BME280;6953;48.810;9.204;2022-12-10T13:12:48;97898.94;;;6.55;76.07
13765;BME280;6953;48.810;9.204;2022-12-10T13:15:20;97932.53;;;6.61;75.70
13765;BME280;6953;48.810;9.204;2022-12-10T13:28:40;97904.97;;;6.56;74.89
13765;BME280;6953;48.810;9.204;2022-12-10T13:41:38;97670.66;;;4.64;78.48
13765;BME280;6953;48.810;9.204;2022-12-10T13:44:37;97923.59;;;5.78;81.25
13765;BME280;6953;48.810;9.204;2022-12-10T13:49:55;97695.53;;;3.93;83.39
13765;BME280;6953;48.810;9.204;2022-12-10T13:55:17;97718.28;;;3.66;86.28
13765;BME280;6953;48.810;9.204;2022-12-10T14:01:01;97957.34;;;4.81;87.94
13765;BME280;6953;48.810;9.204;2022-12-10T14:54:37;98012.88;;;2.73;100.00
13765;BME280;6953;48.810;9.204;2022-12-10T14:57:07;98012.75;;;3.02;100.00
13765;BME280;6953;48.810;9.204;2022-12-10T14:59:38;98003.66;;;3.14;100.00
13765;BME280;6953;48.810;9.204;2022-12-10T15:02:14;97991.19;;;3.25;100.00
13765;BME280;6953;48.810;9.204;2022-12-10T15:04:44;97795.56;;;2.19;100.00
13765;BME280;6953;48.810;9.204;2022-12-10T15:07:18;98018.44;;;3.60;99.25
13765;BME280;6953;48.810;9.204;2022-12-10T15:09:46;97977.78;;;3.37;99.78
13765;BME280;6953;48.810;9.204;2022-12-10T15:12:38;98035.97;;;3.76;98.09
13765;BME280;6953;48.810;9.204;2022-12-10T15:15:15;97998.88;;;3.51;97.79
13765;BME280;6953;48.810;9.204;2022-12-10T15:17:51;98061.13;;;3.74;97.35
13765;BME280;6953;48.810;9.204;2022-12-10T15:20:27;98037.84;;;3.73;97.26
13765;BME280;6953;48.810;9.204;2022-12-10T15:22:53;97813.81;;;2.41;96.81
13765;BME280;6953;48.810;9.204;2022-12-10T15:25:21;98036.56;;;3.60;96.93
13765;BME280;6953;48.810;9.204;2022-12-10T15:28:00;97987.25;;;3.38;96.91
13765;BME280;6953;48.810;9.204;2022-12-10T15:30:36;97961.09;;;3.21;96.32
13765;BME280;6953;48.810;9.204;2022-12-10T15:33:03;98055.00;;;3.77;96.44
13765;BME280;6953;48.810;9.204;2022-12-10T15:35:35;98043.75;;;3.76;96.03
13765;BME280;6953;48.810;9.204;2022-12-10T15:38:01;97965.22;;;3.27;96.26
13765;BME280;6953;48.810;9.204;2022-12-10T15:40:30;98042.16;;;3.72;96.52
13765;BME280;6953;48.810;9.204;2022-12-10T15:43:26;98054.84;;;3.80;95.75
13765;BME280;6953;48.810;9.204;2022-12-10T15:45:51;98059.25;;;3.78;95.83
13765;BME280;6953;48.810;9.204;2022-12-10T15:48:17;98067.38;;;3.69;96.11
13765;BME280;6953;48.810;9.204;2022-12-10T15:50:45;97978.91;;;3.30;95.86
13765;BME280;6953;48.810;9.204;2022-12-10T15:53:12;97990.66;;;3.40;95.71
13765;BME280;6953;48.810;9.204;2022-12-10T15:55:38;98048.31;;;3.70;95.32
13765;BME280;6953;48.810;9.204;2022-12-10T15:58:11;97996.91;;;3.35;95.18
13765;BME280;6953;48.810;9.204;2022-12-10T16:00:36;98062.69;;;3.55;94.60
13765;BME280;6953;48.810;9.204;2022-12-10T16:03:05;98091.53;;;3.46;95.11
13765;BME280;6953;48.810;9.204;2022-12-10T16:05:37;98059.31;;;3.29;94.95
13765;BME280;6953;48.810;9.204;2022-12-10T16:08:28;98069.47;;;3.35;95.20
13765;BME280;6953;48.810;9.204;2022-12-10T16:10:55;98072.25;;;3.29;95.46